createdAt,value
2022-12-08T00:03:05.091Z,3.50
2022-12-08T00:07:28.785Z,3.70
2022-12-08T00:11:33.992Z,3.13
2022-12-08T00:15:38.973Z,3.63
2022-12-08T00:19:44.835Z,3.50
2022-12-08T00:23:49.710Z,3.40
2022-12-08T00:27:54.585Z,3.77
2022-12-08T00:31:59.503Z,3.67
2022-12-08T00:36:14.235Z,3.70
2022-12-08T00:40:19.198Z,3.63
2022-12-08T00:44:24.347Z,4.00
2022-12-08T00:48:29.343Z,3.93
2022-12-08T00:52:34.320Z,4.53
2022-12-08T00:56:39.461Z,4.20
2022-12-08T01:00:44.856Z,4.43
2022-12-08T01:04:49.954Z,4.27
2022-12-08T01:08:54.811Z,4.30
2022-12-08T01:12:59.735Z,4.30
2022-12-08T01:17:04.660Z,4.60
2022-12-08T01:21:09.667Z,5.20
2022-12-08T01:25:14.603Z,5.13
2022-12-08T01:29:19.529Z,5.00
2022-12-08T01:33:24.478Z,4.80
2022-12-08T01:37:30.060Z,5.17
2022-12-08T01:41:37.693Z,5.47
2022-12-08T01:45:43.183Z,5.03
2022-12-08T01:49:48.639Z,5.20
2022-12-08T01:53:53.956Z,4.63
2022-12-08T01:58:27.581Z,5.40
2022-12-08T02:02:49.857Z,4.40
2022-12-08T02:06:55.521Z,4.60
2022-12-08T02:11:00.409Z,4.43
2022-12-08T02:15:06.084Z,4.33
2022-12-08T02:19:46.758Z,4.97
2022-12-08T02:23:59.881Z,5.27
2022-12-08T02:28:16.044Z,5.67
2022-12-08T02:33:04.266Z,5.27
2022-12-08T02:37:40.312Z,5.23
2022-12-08T02:42:00.447Z,5.23
2022-12-08T02:46:15.758Z,5.40
2022-12-08T02:50:21.086Z,5.80
2022-12-08T02:54:26.010Z,4.80
2022-12-08T02:59:02.306Z,5.20
2022-12-08T03:03:20.343Z,5.70
2022-12-08T03:07:49.400Z,5.50
2022-12-08T03:12:05.043Z,7.10
2022-12-08T03:16:14.557Z,6.90
2022-12-08T03:20:25.399Z,7.30
2022-12-08T04:34:26.024Z,9.87
2022-12-08T04:38:31.176Z,9.20
2022-12-08T04:42:36.327Z,10.07
2022-12-08T04:46:43.539Z,9.00
2022-12-08T04:50:48.801Z,10.07
2022-12-08T04:54:53.699Z,9.03
2022-12-08T04:58:58.679Z,9.40
2022-12-08T05:03:03.771Z,8.70
2022-12-08T05:07:08.777Z,8.50
2022-12-08T05:11:14.404Z,9.20
2022-12-08T05:15:19.336Z,8.30
2022-12-08T05:19:24.666Z,8.00
2022-12-08T05:23:29.999Z,9.37
2022-12-08T05:27:35.535Z,8.97
2022-12-08T05:31:40.552Z,9.77
2022-12-08T05:35:45.629Z,9.50
2022-12-08T05:39:50.527Z,9.80
2022-12-08T05:43:55.398Z,9.80
2022-12-08T05:48:00.321Z,13.90
2022-12-08T05:52:05.380Z,9.67
2022-12-08T05:56:12.246Z,9.27
2022-12-08T06:00:18.219Z,10.67
2022-12-08T06:04:23.091Z,10.27
2022-12-08T06:08:28.042Z,10.70
2022-12-08T06:12:33.279Z,10.57
2022-12-08T06:16:38.693Z,9.50
2022-12-08T06:20:43.644Z,11.67
2022-12-08T06:24:48.578Z,10.20
2022-12-08T06:28:53.574Z,10.07
2022-12-08T09:37:08.391Z,10.47
2022-12-08T09:41:48.597Z,9.90
2022-12-08T09:45:55.215Z,9.73
2022-12-08T09:50:37.983Z,9.50
2022-12-08T09:54:43.020Z,9.00
2022-12-08T09:59:16.974Z,9.00
2022-12-08T10:03:28.245Z,11.47
2022-12-08T10:07:48.869Z,13.03
2022-12-08T10:41:32.565Z,10.03
2022-12-08T10:45:41.814Z,10.40
2022-12-08T10:49:46.782Z,10.20
2022-12-08T10:53:51.674Z,10.73
2022-12-08T10:57:56.752Z,10.07
2022-12-08T11:02:02.006Z,9.80
2022-12-08T11:06:17.082Z,8.77
2022-12-08T11:10:36.165Z,8.97
2022-12-08T11:14:44.062Z,6.73
2022-12-08T11:18:57.539Z,7.30
2022-12-08T11:23:03.963Z,14.50
2022-12-08T11:27:09.260Z,9.70
2022-12-08T11:31:43.485Z,8.80
2022-12-08T11:36:09.097Z,9.57
2022-12-08T11:40:36.168Z,7.90
2022-12-08T11:45:13.360Z,8.30
2022-12-08T11:49:18.899Z,8.80
2022-12-08T11:53:35.829Z,8.40
2022-12-08T11:57:40.820Z,7.67
2022-12-08T12:01:46.049Z,7.47
2022-12-08T12:10:55.250Z,7.17
2022-12-08T12:15:33.310Z,8.20
2022-12-08T12:19:39.995Z,8.57
2022-12-08T12:23:59.327Z,13.73
2022-12-08T12:28:08.289Z,27.10
2022-12-08T12:32:14.075Z,8.87
2022-12-08T12:36:22.352Z,15.00
2022-12-08T12:40:36.023Z,6.33
2022-12-08T12:44:41.162Z,6.90
2022-12-08T12:48:46.047Z,6.17
2022-12-08T12:52:51.606Z,6.13
2022-12-08T12:57:14.694Z,6.60
2022-12-08T13:01:22.856Z,6.30
2022-12-08T13:05:31.173Z,7.00
2022-12-08T13:09:39.753Z,6.13
2022-12-08T13:14:04.225Z,6.87
2022-12-08T13:18:27.697Z,6.27
2022-12-08T13:22:53.597Z,7.33
2022-12-08T13:27:04.512Z,6.63
2022-12-08T13:31:35.170Z,6.67
2022-12-08T13:35:47.545Z,6.33
2022-12-08T13:40:00.174Z,7.77
2022-12-08T13:50:36.594Z,5.00
2022-12-08T13:58:03.459Z,5.67
2022-12-08T14:02:40.775Z,7.70
2022-12-08T14:06:52.668Z,7.40
2022-12-08T14:11:06.422Z,12.87
2022-12-08T14:15:14.376Z,8.87
2022-12-08T14:19:22.713Z,11.60
2022-12-08T14:23:28.044Z,9.60
2022-12-08T14:27:36.246Z,8.27
2022-12-08T14:31:41.470Z,7.33
2022-12-08T14:35:53.492Z,6.87
2022-12-08T14:40:36.555Z,6.03
2022-12-08T14:44:41.536Z,7.00
2022-12-08T14:48:46.894Z,7.17
2022-12-08T14:52:53.045Z,6.33
2022-12-08T14:57:01.311Z,5.40
2022-12-08T15:01:08.338Z,5.50
2022-12-08T15:05:18.760Z,6.60
2022-12-08T15:09:34.804Z,7.73
2022-12-08T15:13:46.443Z,6.67
2022-12-08T15:18:02.397Z,6.20
2022-12-08T15:22:21.349Z,5.57
2022-12-08T15:26:28.280Z,5.33
2022-12-08T15:30:34.370Z,5.70
2022-12-08T15:34:39.283Z,6.00
2022-12-08T15:38:44.252Z,5.50
2022-12-08T15:42:49.710Z,5.77
2022-12-08T15:46:55.453Z,5.57
2022-12-08T15:51:00.402Z,5.30
2022-12-08T15:55:05.854Z,4.47
2022-12-08T15:59:22.920Z,5.50
2022-12-08T16:04:18.621Z,6.00
2022-12-08T16:07:57.984Z,6.20
2022-12-08T16:12:22.102Z,6.40
2022-12-08T16:16:30.083Z,5.80
2022-12-08T16:21:06.561Z,7.80
2022-12-08T16:25:09.526Z,6.00
2022-12-08T16:29:21.060Z,6.43
2022-12-08T16:33:26.031Z,7.00
2022-12-08T16:37:30.999Z,6.90
2022-12-08T16:41:54.239Z,6.80
2022-12-08T16:45:59.265Z,6.70
2022-12-08T16:50:14.538Z,6.60
2022-12-08T16:54:19.450Z,6.47
2022-12-08T16:58:24.364Z,6.10
2022-12-08T17:02:29.281Z,7.30
2022-12-08T17:06:34.248Z,6.20
2022-12-08T17:10:40.713Z,6.60
2022-12-08T17:14:45.657Z,7.10
2022-12-08T17:18:50.654Z,6.00
2022-12-08T17:22:58.067Z,6.70
2022-12-08T17:27:06.742Z,6.00
2022-12-08T17:31:14.030Z,5.60
2022-12-08T17:35:19.742Z,6.53
2022-12-08T17:55:57.325Z,8.03
2022-12-08T18:00:03.169Z,7.00
2022-12-08T18:04:10.437Z,7.33
2022-12-08T18:08:15.595Z,6.00
2022-12-08T18:12:23.665Z,7.00
2022-12-08T18:16:29.037Z,8.30
2022-12-08T18:20:34.886Z,8.00
2022-12-08T18:24:39.837Z,8.60
2022-12-08T18:28:44.784Z,10.63
2022-12-08T18:32:52.952Z,11.63
2022-12-08T18:37:02.258Z,10.73
2022-12-08T18:41:18.172Z,9.80
2022-12-08T18:45:23.254Z,14.70
2022-12-08T18:49:28.144Z,17.20
2022-12-08T18:53:33.025Z,15.17
2022-12-08T18:57:40.024Z,13.03
2022-12-08T19:01:44.957Z,12.77
2022-12-08T19:05:50.107Z,13.43
2022-12-08T19:09:56.170Z,11.97
2022-12-08T19:14:01.304Z,12.47
2022-12-08T19:18:06.284Z,11.87
2022-12-08T19:22:12.264Z,11.90
2022-12-08T19:26:18.034Z,11.67
2022-12-08T19:30:24.067Z,10.90
2022-12-08T19:34:28.951Z,11.03
2022-12-08T19:38:54.028Z,12.43
2022-12-08T19:43:17.537Z,10.53
2022-12-08T19:47:27.137Z,9.60
2022-12-08T19:51:32.149Z,10.00
2022-12-08T19:55:38.160Z,9.70
2022-12-08T19:59:43.184Z,11.13
2022-12-08T20:03:48.117Z,11.53
2022-12-08T20:07:55.680Z,17.40
2022-12-08T20:12:00.668Z,25.17
2022-12-08T20:16:06.359Z,16.80
2022-12-08T20:20:13.797Z,18.47
2022-12-08T20:24:19.886Z,18.03
2022-12-08T20:28:24.932Z,18.80
2022-12-08T20:32:29.967Z,17.57
2022-12-08T20:36:34.861Z,16.07
2022-12-08T20:40:46.313Z,16.43
2022-12-08T20:44:51.341Z,13.67
2022-12-08T20:48:56.433Z,15.23
2022-12-08T20:53:01.562Z,16.70
2022-12-08T20:57:06.645Z,15.17
2022-12-08T21:01:14.546Z,15.10
2022-12-08T21:05:20.675Z,16.57
2022-12-08T21:09:26.004Z,16.60
2022-12-08T21:13:31.489Z,16.17
2022-12-08T21:17:36.695Z,15.03
2022-12-08T21:21:41.901Z,16.03
2022-12-08T21:25:47.612Z,14.60
2022-12-08T21:29:52.639Z,14.57
2022-12-08T21:34:02.204Z,16.50
2022-12-08T21:38:07.412Z,16.47
2022-12-08T21:42:34.141Z,17.83
2022-12-08T21:46:39.670Z,17.03
2022-12-08T21:50:44.798Z,17.50
2022-12-08T21:54:49.751Z,16.17
2022-12-08T21:58:55.606Z,16.70
2022-12-08T22:03:00.604Z,17.03
2022-12-08T22:07:09.736Z,16.67
2022-12-08T22:11:14.879Z,15.33
2022-12-08T22:15:19.849Z,15.83
2022-12-08T22:19:24.846Z,14.40
2022-12-08T22:23:29.711Z,15.50
2022-12-08T22:27:34.690Z,14.77
2022-12-08T22:31:39.717Z,15.40
2022-12-08T22:35:44.641Z,16.57
2022-12-08T22:39:49.853Z,14.50
2022-12-08T22:43:55.045Z,16.17
2022-12-08T22:47:59.896Z,16.10
2022-12-08T22:52:05.101Z,15.03
2022-12-08T22:56:12.680Z,14.73
2022-12-08T23:00:18.907Z,14.43
2022-12-08T23:04:24.075Z,14.50
2022-12-08T23:08:29.333Z,14.40
2022-12-08T23:12:35.029Z,14.13
2022-12-08T23:16:40.012Z,15.07
2022-12-08T23:20:46.931Z,13.33
2022-12-08T23:24:51.874Z,13.47
2022-12-08T23:28:58.204Z,13.17
2022-12-08T23:33:03.200Z,13.30
2022-12-08T23:37:08.236Z,13.10
2022-12-08T23:41:15.100Z,12.10
2022-12-08T23:45:20.278Z,10.60
2022-12-08T23:49:25.206Z,12.07
2022-12-08T23:53:32.743Z,12.00
2022-12-08T23:57:38.640Z,12.67
